Strona główna
METAR-TAF:

METAR-TAF

Lotnisko :

Port lotniczy Nassau

Nassau, Bahamy

Szerokość geograficzna: 25-03N, Długość geograficzna: 077-28W, wysokość: 3 m

Aktualna obserwacja pogody

Raport powstał 42 minut temu, godzina 13:00 UTC
Wiatr 6 kt od wschodnio-północny wschód
Temperatura 28°C
Wilgotność 79%
Ciśnienie 1017 hPa
Widzialność 10 km lub więcej
Mało chmury na wysokości 1500 ft, Cumulonimbus.

METAR: MYNN 241300Z 06006KT 9999 FEW015CB 28/24 A3002 RMK CB NW-E

czas: 09:42 (13:42 UTC)

Prognoza

Raport powstał 3 godziny i 42 minut temu, godzina 10:00 UTC
Prognoza ważna od 24 godzina 12 UTC do 25 godzina 12 UTC
Wiatr 2 kt z kierunków zmiennych
Widzialność 10 km lub więcej
Mało chmury na wysokości 2000 ft

TAF: MYNN 241000Z 2412/2512 VRB02KT 9999 FEW020

Obserwacja i prognoza pogody dla ponad 4000 lotnisk (raport METAR i TAF).

Dostępne stacje oznaczono żółtymi i czerwonymi punktami na mapie.

Najedź kursorem aby zobaczyć nazwę stacji.

Kliknij aby zobaczyć obserwacje i prognozy pogody.

Aby zmienić mapę: kliknij na zielony przycisk z czarnym krzyżykiem, aby powiększyć; na zielony przycisk z myślnikiem, aby pomniejszyć; na zielone strzałki, aby przejść do map sąsiednich.


METAR-TAF: